Macon, GA (31201)

1:52 AM EST on December 06, 2016 (GMT -0500)
Mercer University | | Change Station

Elev 430 ft 32.83 °N, 83.65 °W | Updated 3 seconds ago

Light Rain
Light Rain
55.1 °F
Feels Like 55.1 °F
N
2.0
Wind Variable Wind from ENE
Gusts 10.0 mph

Today
High -- | Low -- °F
--% Chance of Precip.
Yesterday
High -- | Low -- °F
Precip. -- in
Pressure 29.81 in
Visibility 7.0 miles
Clouds Overcast 700 ft
Dew Point 54 °F
Humidity 97%
Rainfall 0.04 in
Snow Depth Not available.
7:23 AM 5:27 PM
Waxing Crescent, 39% visible
METAR KMCN 060553Z AUTO 05007KT 7SM -RA OVC007 13/12 A2981 RMK AO2 RAB0457 SLP093 P0005 60113 T01280122 10128 20117 56018
Pressure 29.81 in
Visibility 7.0 miles
Clouds Overcast 700 ft
Dew Point 54 °F
Humidity 97%
Rainfall 0.04 in
Snow Depth Not available.
7:23 AM 5:27 PM
Waxing Crescent, 39% visible
METAR KMCN 060553Z AUTO 05007KT 7SM -RA OVC007 13/12 A2981 RMK AO2 RAB0457 SLP093 P0005 60113 T01280122 10128 20117 56018

10-Day Weather Forecast

Almanac

Astronomy

Dec. 06, 2016 Rise Set
Actual Time
Civil Twilight
Nautical Twilight
Astronomical Twilight
Moon
Length of Visible Light
Length of Day
Tomorrow will be .
, % of the Moon is Illuminated

Today's Extremes

State Highs State Lows

Community

WunderPhotos

Upload Photos

1,955,932 photos uploaded!

WunderBlog® & News

Nearby

Air Quality

  Air Quality AQ Index Pollutant
Not available.

Snow Depth

Station Depth Elevation

Earthquake Activity

City Distance Mag. Time & Date
Minimum magnitude displayed is 2.5.

Coastal Water Temperatures

Place Temperature

Stations

Nearby Weather Stations

Station Location Temp. Windchill Dew Point Humidity Wind Precip. Elev Updated Type
                   

Watches & Warnings

There are currently no watches in effect.